Time;durP1;ratioP1;P1;durP2;ratioP2;P2;SDS_P1;SDS_P2;PMS_P1;PMS_P2;Temp;Humidity;BMP_temperature;BMP_pressure;BME280_temperature;BME280_humidity;BME280_pressure;Samples;Min_cycle;Max_cycle;Signal;HPM_P1;HPM_P2
2022/09/29 00:01:43;;;;;;;;;;;;;;;7.70;82.51;99944.03;4968661;28;20039;-62
2022/09/29 00:04:09;;;;;;;;;;;;;;;7.68;82.39;99938.84;4968588;28;19918;-62
2022/09/29 00:06:35;;;;;;;;;;;;;;;7.67;82.78;99939.66;4971907;28;19914;-62
2022/09/29 00:09:00;;;;;;;;;;;;;;;7.65;82.47;99933.59;4982377;28;19971;-63
2022/09/29 00:11:25;;;;;;;;;;;;;;;7.65;82.75;99938.78;4984000;28;20416;-62
2022/09/29 00:13:50;;;;;;;;;;;;;;;7.64;82.83;99939.59;4993228;28;19940;-63
2022/09/29 00:16:16;;;;;;;;;;;;;;;7.61;82.47;99934.38;4974061;28;19910;-68
2022/09/29 00:18:41;;;;;;;;;;;;;;;7.58;82.89;99931.72;4974613;28;19914;-68
2022/09/29 00:21:10;;;;;;;;;;;;;;;7.58;82.92;99931.72;4977399;28;19953;-68
2022/09/29 00:23:36;;;;;;;;;;;;;;;7.54;82.81;99927.28;4986910;28;19913;-68
2022/09/29 00:26:09;;;;;;;;;;;;;;;7.53;82.71;99931.63;4976190;28;19917;-69
2022/09/29 00:28:35;;;;;;;;;;;;;;;7.51;82.57;99927.25;4987368;28;19921;-68
2022/09/29 00:31:01;;;;;;;;;;;;;;;7.47;82.47;99926.28;4982184;28;19910;-68
2022/09/29 00:33:30;;;;;;;;;;;;;;;7.46;82.94;99930.59;4991194;28;20000;-69
2022/09/29 00:36:00;;;;;;;;;;;;;;;7.44;82.59;99921.03;4991825;28;20392;-68
2022/09/29 00:38:25;;;;;;;;;;;;;;;7.43;82.69;99925.34;4972947;28;19970;-68
2022/09/29 00:40:50;;;;;;;;;;;;;;;7.41;82.74;99926.16;4992972;28;19909;-68
2022/09/29 00:43:19;;;;;;;;;;;;;;;7.41;82.89;99924.44;4992723;28;20306;-68
2022/09/29 00:45:44;;;;;;;;;;;;;;;7.39;82.87;99933.03;4992990;28;19917;-67
2022/09/29 00:48:13;;;;;;;;;;;;;;;7.38;82.58;99934.75;4969146;28;19926;-63
2022/09/29 00:50:43;;;;;;;;;;;;;;;7.35;82.84;99932.09;4968722;28;20421;-62
2022/09/29 00:53:11;;;;;;;;;;;;;;;7.32;82.67;99930.28;4968256;28;19948;-62
2022/09/29 00:55:41;;;;;;;;;;;;;;;7.28;82.76;99936.25;4968346;28;20020;-62
2022/09/29 00:58:07;;;;;;;;;;;;;;;7.21;82.90;99924.03;4974454;28;19914;-62
2022/09/29 01:00:32;;;;;;;;;;;;;;;7.13;83.18;99931.59;4991960;28;19910;-63
2022/09/29 01:03:04;;;;;;;;;;;;;;;7.11;83.01;99928.13;4977069;28;19914;-62
2022/09/29 01:05:35;;;;;;;;;;;;;;;7.13;83.07;99925.56;4978444;28;19914;-62
2022/09/29 01:08:04;;;;;;;;;;;;;;;7.13;82.97;99925.56;4972308;28;19917;-62
2022/09/29 01:10:30;;;;;;;;;;;;;;;7.13;83.21;99923.84;4973800;28;19918;-63
2022/09/29 01:12:55;;;;;;;;;;;;;;;7.12;83.04;99919.47;4982763;28;20381;-62
2022/09/29 01:15:21;;;;;;;;;;;;;;;7.13;83.22;99913.47;4988062;28;20021;-62
2022/09/29 01:17:48;;;;;;;;;;;;;;;7.13;82.93;99910.88;4982536;28;19913;-69
2022/09/29 01:20:15;;;;;;;;;;;;;;;7.11;82.88;99915.16;4984232;28;19913;-68
2022/09/29 01:23:01;;;;;;;;;;;;;;;7.12;82.96;99916.03;4987227;28;19925;-68
2022/09/29 01:25:47;;;;;;;;;;;;;;;7.10;82.89;99923.75;4986297;28;19914;-68
2022/09/29 01:28:29;;;;;;;;;;;;;;;7.07;83.02;99922.84;4990714;28;19917;-69
2022/09/29 01:31:05;;;;;;;;;;;;;;;7.05;82.94;99927.94;4991900;28;20004;-68
2022/09/29 01:33:36;;;;;;;;;;;;;;;7.02;82.86;99917.53;4983467;28;19920;-69
2022/09/29 01:36:04;;;;;;;;;;;;;;;7.00;82.96;99924.41;4987056;28;19909;-69
2022/09/29 01:38:38;;;;;;;;;;;;;;;7.01;82.91;99927.84;4983557;28;19940;-69
2022/09/29 01:41:03;;;;;;;;;;;;;;;6.92;82.92;99925.91;4974323;28;19969;-69
2022/09/29 01:43:32;;;;;;;;;;;;;;;6.89;82.97;99931.91;4972648;28;19918;-69
2022/09/29 01:46:07;;;;;;;;;;;;;;;6.88;83.05;99929.28;4987040;28;19910;-68
2022/09/29 01:48:35;;;;;;;;;;;;;;;6.86;83.42;99923.19;4991924;28;20016;-68
2022/09/29 01:51:04;;;;;;;;;;;;;;;6.85;83.09;99930.09;4991656;28;19914;-68
2022/09/29 01:53:33;;;;;;;;;;;;;;;6.83;82.96;99926.59;4976724;28;19913;-68
2022/09/29 01:56:01;;;;;;;;;;;;;;;6.81;83.51;99927.38;4987647;28;19917;-68
2022/09/29 01:58:33;;;;;;;;;;;;;;;6.79;83.02;99930.84;4981120;28;19993;-69
2022/09/29 02:01:01;;;;;;;;;;;;;;;6.77;82.81;99932.50;4982770;28;20334;-69
2022/09/29 02:03:29;;;;;;;;;;;;;;;6.75;83.22;99929.00;4979136;28;19913;-68
2022/09/29 02:05:57;;;;;;;;;;;;;;;6.72;83.07;99934.09;4984675;28;20422;-68
2022/09/29 02:08:40;;;;;;;;;;;;;;;6.70;83.16;99935.75;4971669;28;20015;-68
2022/09/29 02:11:13;;;;;;;;;;;;;;;6.68;83.27;99932.28;4979671;28;19917;-69
2022/09/29 02:13:40;;;;;;;;;;;;;;;6.68;83.17;99931.41;4983682;28;19918;-68
2022/09/29 02:16:08;;;;;;;;;;;;;;;6.67;83.31;99925.34;4978345;28;19909;-68
2022/09/29 02:18:38;;;;;;;;;;;;;;;6.65;83.12;99927.03;4979680;28;19917;-68
2022/09/29 02:21:04;;;;;;;;;;;;;;;6.64;82.99;99935.63;4989989;28;20292;-68
2022/09/29 02:23:30;;;;;;;;;;;;;;;6.64;83.35;99932.16;4991053;28;19910;-69
2022/09/29 02:25:57;;;;;;;;;;;;;;;6.60;83.39;99928.63;4975163;28;20297;-69
2022/09/29 02:28:22;;;;;;;;;;;;;;;6.57;83.42;99934.59;4990991;28;19925;-68
2022/09/29 02:30:51;;;;;;;;;;;;;;;6.53;83.39;99931.88;4977681;28;19918;-69
2022/09/29 02:33:17;;;;;;;;;;;;;;;6.48;83.53;99938.69;4981525;28;19950;-68
2022/09/29 02:35:47;;;;;;;;;;;;;;;6.44;83.52;99938.59;4974753;28;20368;-68
2022/09/29 02:38:24;;;;;;;;;;;;;;;6.44;83.12;99943.78;4988903;28;19906;-68
2022/09/29 02:40:59;;;;;;;;;;;;;;;6.41;83.17;99937.63;4987540;28;19914;-68
2022/09/29 02:43:36;;;;;;;;;;;;;;;6.38;83.46;99941.00;4991101;28;19914;-68
2022/09/29 02:46:01;;;;;;;;;;;;;;;6.35;83.30;99937.47;4990820;28;19910;-68
2022/09/29 02:48:27;;;;;;;;;;;;;;;6.33;83.36;99939.13;4987582;28;20091;-68
2022/09/29 02:51:10;;;;;;;;;;;;;;;6.32;83.22;99942.56;4985314;28;19910;-69
2022/09/29 02:53:47;;;;;;;;;;;;;;;6.31;83.54;99941.69;4995076;28;19964;-68
2022/09/29 02:56:28;;;;;;;;;;;;;;;6.30;83.29;99939.94;4994973;28;19931;-68
2022/09/29 02:58:59;;;;;;;;;;;;;;;6.31;83.28;99938.22;4995019;28;20439;-68
2022/09/29 03:01:25;;;;;;;;;;;;;;;6.30;83.60;99936.47;4983453;28;19968;-68
2022/09/29 03:03:50;;;;;;;;;;;;;;;6.26;83.34;99936.41;4977517;28;20357;-68
2022/09/29 03:06:17;;;;;;;;;;;;;;;6.26;83.45;99940.69;4985581;28;19925;-68
2022/09/29 03:08:43;;;;;;;;;;;;;;;6.25;83.43;99938.94;4984316;28;20282;-68
2022/09/29 03:11:08;;;;;;;;;;;;;;;6.24;83.41;99942.34;4988240;28;19960;-68
2022/09/29 03:13:33;;;;;;;;;;;;;;;6.22;83.32;99933.69;4973121;28;19922;-67
2022/09/29 03:15:58;;;;;;;;;;;;;;;6.20;83.18;99933.66;4976376;28;19941;-68
2022/09/29 03:18:23;;;;;;;;;;;;;;;6.20;83.44;99937.94;4976795;28;19941;-68
2022/09/29 03:20:48;;;;;;;;;;;;;;;6.16;83.46;99933.53;4987675;28;19910;-69
2022/09/29 03:23:14;;;;;;;;;;;;;;;6.13;83.24;99938.63;4992823;28;19917;-69
2022/09/29 03:25:40;;;;;;;;;;;;;;;6.11;83.46;99932.53;4981589;28;19960;-68
2022/09/29 03:28:06;;;;;;;;;;;;;;;6.09;83.45;99935.06;4986159;28;19922;-69
2022/09/29 03:30:31;;;;;;;;;;;;;;;6.09;83.57;99933.34;4993841;28;19910;-69
2022/09/29 03:32:56;;;;;;;;;;;;;;;6.11;83.65;99937.69;4993989;28;19947;-68
2022/09/29 03:35:21;;;;;;;;;;;;;;;6.08;83.24;99930.72;4988541;28;20000;-68
2022/09/29 03:37:46;;;;;;;;;;;;;;;6.04;83.46;99934.06;4986028;28;20399;-69
2022/09/29 03:40:12;;;;;;;;;;;;;;;6.01;83.49;99936.56;4992686;28;19910;-68
2022/09/29 03:42:37;;;;;;;;;;;;;;;6.01;83.40;99941.72;4965465;28;19906;-68
2022/09/29 03:45:02;;;;;;;;;;;;;;;6.00;83.66;99943.47;4987777;28;19910;-69
2022/09/29 03:47:27;;;;;;;;;;;;;;;6.01;83.26;99942.63;4976049;28;19940;-68
2022/09/29 03:49:53;;;;;;;;;;;;;;;6.01;83.33;99944.31;4976156;28;19923;-68
2022/09/29 03:52:18;;;;;;;;;;;;;;;5.97;83.26;99940.78;4984347;28;19914;-68
2022/09/29 03:54:44;;;;;;;;;;;;;;;5.96;83.59;99938.13;4976653;28;19914;-68
2022/09/29 03:57:09;;;;;;;;;;;;;;;5.95;83.55;99941.53;4972999;28;19914;-62
2022/09/29 03:59:34;;;;;;;;;;;;;;;5.94;83.48;99945.84;4965583;28;19937;-62
2022/09/29 04:01:59;;;;;;;;;;;;;;;5.94;83.61;99951.03;4968234;28;19944;-62
2022/09/29 04:04:24;;;;;;;;;;;;;;;5.93;83.65;99949.25;4971727;28;19914;-62
2022/09/29 04:06:50;;;;;;;;;;;;;;;5.92;83.62;99939.75;4979143;28;20000;-63
2022/09/29 04:09:15;;;;;;;;;;;;;;;5.90;83.51;99952.63;4985809;28;19917;-62
2022/09/29 04:11:40;;;;;;;;;;;;;;;5.86;83.58;99947.34;4980976;28;19914;-63
2022/09/29 04:14:05;;;;;;;;;;;;;;;5.79;83.71;99955.75;4986427;28;19925;-62
2022/09/29 04:16:31;;;;;;;;;;;;;;;5.74;83.71;99958.22;4979480;28;19913;-62
2022/09/29 04:18:56;;;;;;;;;;;;;;;5.72;83.51;99958.16;4982190;28;19914;-62
2022/09/29 04:21:21;;;;;;;;;;;;;;;5.72;83.86;99960.75;4975847;28;19910;-62
2022/09/29 04:23:46;;;;;;;;;;;;;;;5.73;83.88;99957.31;4983281;28;19936;-62
2022/09/29 04:26:12;;;;;;;;;;;;;;;5.72;83.36;99960.75;4975941;28;20013;-62
2022/09/29 04:28:37;;;;;;;;;;;;;;;5.72;83.63;99955.59;4972818;28;19917;-69
2022/09/29 04:31:03;;;;;;;;;;;;;;;5.70;83.75;99954.66;4978496;28;19921;-68
2022/09/29 04:33:28;;;;;;;;;;;;;;;5.70;83.70;99962.41;4980463;28;19937;-68
2022/09/29 04:35:54;;;;;;;;;;;;;;;5.69;83.27;99963.25;4970666;28;19914;-68
2022/09/29 04:38:19;;;;;;;;;;;;;;;5.68;83.30;99965.78;4983463;28;20006;-69
2022/09/29 04:40:45;;;;;;;;;;;;;;;5.65;83.22;99961.41;4972217;28;19914;-68
2022/09/29 04:43:10;;;;;;;;;;;;;;;5.63;83.34;99969.94;4992842;28;19924;-68
2022/09/29 04:45:36;;;;;;;;;;;;;;;5.62;83.60;99974.25;4988079;28;20012;-68
2022/09/29 04:48:01;;;;;;;;;;;;;;;5.61;83.17;99966.44;4971152;28;20284;-68
2022/09/29 04:50:26;;;;;;;;;;;;;;;5.58;83.18;99973.25;4973886;28;19946;-69
2022/09/29 04:52:51;;;;;;;;;;;;;;;5.57;83.52;99973.22;4991976;28;20366;-68
2022/09/29 04:55:17;;;;;;;;;;;;;;;5.56;83.78;99967.19;4986863;28;19910;-68
2022/09/29 04:57:43;;;;;;;;;;;;;;;5.56;83.52;99971.44;4980403;28;19918;-62
2022/09/29 05:00:08;;;;;;;;;;;;;;;5.54;83.36;99975.72;4968973;28;19921;-62
2022/09/29 05:02:34;;;;;;;;;;;;;;;5.53;83.59;99979.13;4983860;28;19910;-62
2022/09/29 05:04:59;;;;;;;;;;;;;;;5.49;83.60;99978.16;4990389;28;19910;-62
2022/09/29 05:07:24;;;;;;;;;;;;;;;5.45;83.24;99976.31;4974618;28;19914;-62
2022/09/29 05:09:49;;;;;;;;;;;;;;;5.44;83.36;99982.31;4981344;28;20301;-62
2022/09/29 05:12:14;;;;;;;;;;;;;;;5.44;83.28;99989.19;4987542;28;19996;-62
2022/09/29 05:14:39;;;;;;;;;;;;;;;5.44;83.64;99990.06;4986168;28;19918;-62
2022/09/29 05:17:05;;;;;;;;;;;;;;;5.43;83.29;99995.19;4986527;28;19945;-62
2022/09/29 05:19:31;;;;;;;;;;;;;;;5.40;83.24;99998.53;4992166;28;19993;-62
2022/09/29 05:21:57;;;;;;;;;;;;;;;5.38;83.65;99995.91;4964819;28;19960;-62
2022/09/29 05:24:22;;;;;;;;;;;;;;;5.38;83.56;100001.06;4978737;28;19967;-62
2022/09/29 05:26:47;;;;;;;;;;;;;;;5.36;83.70;100004.47;4992441;28;19996;-62
2022/09/29 05:29:13;;;;;;;;;;;;;;;5.36;83.20;100007.91;4991851;28;19949;-62
2022/09/29 05:31:38;;;;;;;;;;;;;;;5.34;83.17;100006.09;4992050;28;19953;-62
2022/09/29 05:34:03;;;;;;;;;;;;;;;5.28;83.22;100004.19;4991803;28;19916;-62
2022/09/29 05:36:28;;;;;;;;;;;;;;;5.29;83.17;100013.72;4987673;28;20000;-62
2022/09/29 05:38:55;;;;;;;;;;;;;;;5.26;83.29;100011.03;4978169;28;19913;-62
2022/09/29 05:41:22;;;;;;;;;;;;;;;5.26;83.38;100005.88;4983602;28;19956;-62
2022/09/29 05:43:48;;;;;;;;;;;;;;;5.27;83.30;100019.66;4979276;28;19909;-62
2022/09/29 05:46:15;;;;;;;;;;;;;;;5.27;83.50;100011.91;4984868;28;20045;-62
2022/09/29 05:48:42;;;;;;;;;;;;;;;5.24;83.31;100023.00;4980237;28;19918;-62
2022/09/29 05:51:09;;;;;;;;;;;;;;;5.22;83.44;100022.09;4979868;28;20301;-62
2022/09/29 05:53:34;;;;;;;;;;;;;;;5.23;83.54;100014.41;4981775;28;19922;-62
2022/09/29 05:56:03;;;;;;;;;;;;;;;5.22;83.27;100025.53;4978007;28;20424;-62
2022/09/29 05:58:28;;;;;;;;;;;;;;;5.22;83.33;100025.53;4973801;28;19914;-62
2022/09/29 06:00:54;;;;;;;;;;;;;;;5.21;83.56;100022.91;4972406;28;19921;-62
2022/09/29 06:03:19;;;;;;;;;;;;;;;5.20;83.45;100031.50;4979406;28;19945;-63
2022/09/29 06:05:44;;;;;;;;;;;;;;;5.21;83.75;100033.25;4977468;28;19914;-62
2022/09/29 06:08:09;;;;;;;;;;;;;;;5.19;83.50;100029.75;4980299;28;19914;-62
2022/09/29 06:10:35;;;;;;;;;;;;;;;5.20;83.55;100037.53;4990395;28;20395;-62
2022/09/29 06:13:02;;;;;;;;;;;;;;;5.20;84.02;100036.69;4991442;28;19914;-62
2022/09/29 06:15:27;;;;;;;;;;;;;;;5.20;83.91;100032.38;4977219;28;20356;-62
2022/09/29 06:17:56;;;;;;;;;;;;;;;5.18;83.68;100040.91;4991335;28;19917;-62
2022/09/29 06:20:21;;;;;;;;;;;;;;;5.18;84.08;100043.47;4981869;28;19988;-62
2022/09/29 06:22:47;;;;;;;;;;;;;;;5.18;83.67;100043.47;4991225;28;19993;-62
2022/09/29 06:25:13;;;;;;;;;;;;;;;5.18;83.82;100058.97;4974912;28;19941;-62
2022/09/29 06:27:38;;;;;;;;;;;;;;;5.17;84.20;100049.47;4978961;28;19913;-68
2022/09/29 06:30:03;;;;;;;;;;;;;;;5.17;83.85;100058.13;4978645;28;20274;-69
2022/09/29 06:32:28;;;;;;;;;;;;;;;5.18;84.14;100052.09;4973322;28;19921;-69
2022/09/29 06:37:39;;;;;;;;;;;;;;;5.18;84.03;100059.84;4982409;28;20369;-68
2022/09/29 06:40:07;;;;;;;;;;;;;;;5.18;84.03;100059.84;4973566;28;20589;-69
2022/09/29 06:42:32;;;;;;;;;;;;;;;5.21;84.11;100064.25;4983637;28;19921;-69
2022/09/29 06:44:57;;;;;;;;;;;;;;;5.24;84.56;100069.50;4977230;28;19910;-69
2022/09/29 06:47:23;;;;;;;;;;;;;;;5.21;84.59;100075.47;4969115;28;19928;-68
2022/09/29 06:49:48;;;;;;;;;;;;;;;5.22;84.29;100072.03;4965442;28;20301;-69
2022/09/29 06:52:14;;;;;;;;;;;;;;;5.24;84.33;100074.66;4968712;28;19914;-68
2022/09/29 06:54:39;;;;;;;;;;;;;;;5.27;84.55;100071.31;4967725;28;20389;-68
2022/09/29 06:57:04;;;;;;;;;;;;;;;5.30;84.26;100084.31;4976181;28;20001;-69
2022/09/29 06:59:29;;;;;;;;;;;;;;;5.31;84.62;100079.19;4974465;28;20328;-69
2022/09/29 07:01:54;;;;;;;;;;;;;;;5.34;84.99;100081.88;4969857;28;19956;-69
2022/09/29 07:04:20;;;;;;;;;;;;;;;5.37;84.65;100091.44;4974362;28;20005;-69
2022/09/29 07:06:45;;;;;;;;;;;;;;;5.41;84.76;100082.97;4976729;28;19918;-68
2022/09/29 07:09:14;;;;;;;;;;;;;;;5.46;84.75;100091.75;4980869;28;19996;-69
2022/09/29 07:11:40;;;;;;;;;;;;;;;5.48;85.07;100089.22;4964189;28;19925;-70
2022/09/29 07:14:05;;;;;;;;;;;;;;;5.52;84.87;100091.94;4959031;28;19922;-68
2022/09/29 07:16:30;;;;;;;;;;;;;;;5.56;85.08;100092.91;4972490;28;20000;-69
2022/09/29 07:18:55;;;;;;;;;;;;;;;5.59;85.63;100090.44;4976217;28;20432;-68
2022/09/29 07:21:21;;;;;;;;;;;;;;;5.64;85.17;100094.03;4979403;28;19921;-68
2022/09/29 07:23:46;;;;;;;;;;;;;;;5.70;85.49;100099.38;4976614;28;19913;-68
2022/09/29 07:26:12;;;;;;;;;;;;;;;5.75;85.22;100105.59;4974530;28;19953;-70
2022/09/29 07:28:37;;;;;;;;;;;;;;;5.80;85.48;100103.13;4970530;28;19925;-69
2022/09/29 07:31:04;;;;;;;;;;;;;;;5.86;85.30;100097.28;4975970;28;19918;-69
2022/09/29 07:33:30;;;;;;;;;;;;;;;5.90;85.66;100104.31;4976540;28;19969;-69
2022/09/29 07:35:58;;;;;;;;;;;;;;;5.94;85.71;100101.00;4986838;28;19910;-68
2022/09/29 07:38:23;;;;;;;;;;;;;;;5.99;85.35;100104.59;4983509;28;20355;-69
2022/09/29 07:40:48;;;;;;;;;;;;;;;6.04;85.58;100107.31;4981165;28;19988;-69
2022/09/29 07:43:13;;;;;;;;;;;;;;;6.08;85.82;100107.47;4987471;28;19917;-69
2022/09/29 07:45:44;;;;;;;;;;;;;;;6.12;85.70;100107.56;4973576;28;19913;-68
2022/09/29 07:48:09;;;;;;;;;;;;;;;6.16;86.03;100104.25;4983322;28;19921;-68
2022/09/29 07:50:34;;;;;;;;;;;;;;;6.21;86.25;100105.25;4982429;28;19914;-68
2022/09/29 07:53:00;;;;;;;;;;;;;;;6.25;86.09;100112.25;4983733;28;20321;-69
2022/09/29 07:55:26;;;;;;;;;;;;;;;6.29;86.56;100119.28;4974599;28;19910;-69
2022/09/29 07:57:51;;;;;;;;;;;;;;;6.34;86.19;100117.69;4992496;28;19945;-68
2022/09/29 08:00:16;;;;;;;;;;;;;;;6.38;86.62;100122.13;4980320;28;19996;-68
2022/09/29 08:02:42;;;;;;;;;;;;;;;6.43;86.78;100122.25;4989699;28;20105;-69
2022/09/29 08:05:07;;;;;;;;;;;;;;;6.47;87.15;100125.81;4985067;28;20336;-69
2022/09/29 08:07:33;;;;;;;;;;;;;;;6.50;87.12;100124.19;4981151;28;19914;-69
2022/09/29 08:09:58;;;;;;;;;;;;;;;6.55;87.24;100126.94;4987759;28;19924;-69
2022/09/29 08:12:23;;;;;;;;;;;;;;;6.63;88.06;100129.72;4988188;28;20429;-69
2022/09/29 08:14:49;;;;;;;;;;;;;;;6.70;88.30;100136.81;4974843;28;19918;-69
2022/09/29 08:17:14;;;;;;;;;;;;;;;6.75;88.12;100135.25;4991332;28;19921;-69
2022/09/29 08:19:39;;;;;;;;;;;;;;;6.81;88.22;100139.69;4993495;28;19910;-69
2022/09/29 08:22:05;;;;;;;;;;;;;;;6.87;88.40;100145.06;4993168;28;19909;-68
2022/09/29 08:24:30;;;;;;;;;;;;;;;6.93;88.73;100142.63;4985564;28;20109;-68
2022/09/29 08:26:56;;;;;;;;;;;;;;;6.98;88.42;100146.25;4993138;28;19913;-69
2022/09/29 08:29:21;;;;;;;;;;;;;;;7.04;88.36;100155.84;4990492;28;19960;-69
2022/09/29 08:31:47;;;;;;;;;;;;;;;7.08;88.25;100152.50;4987987;28;19957;-70
2022/09/29 08:34:13;;;;;;;;;;;;;;;7.12;88.73;100155.22;4985659;28;20439;-68
2022/09/29 08:36:38;;;;;;;;;;;;;;;7.17;88.36;100162.25;4977957;28;19910;-69
2022/09/29 08:39:03;;;;;;;;;;;;;;;7.20;88.66;100167.50;4978425;28;20444;-69
2022/09/29 08:41:47;;;;;;;;;;;;;;;7.24;88.64;100166.75;4978602;28;19918;-69
2022/09/29 08:44:33;;;;;;;;;;;;;;;7.28;88.57;100169.44;4970934;28;20037;-69
2022/09/29 08:47:00;;;;;;;;;;;;;;;7.33;88.36;100164.41;4968025;28;19917;-69
2022/09/29 08:49:32;;;;;;;;;;;;;;;7.37;88.45;100171.44;4968043;28;19957;-69
2022/09/29 08:52:03;;;;;;;;;;;;;;;7.42;88.11;100175.00;4971510;28;20399;-69
2022/09/29 08:54:38;;;;;;;;;;;;;;;7.48;88.35;100176.88;4973625;28;20362;-69
2022/09/29 08:57:05;;;;;;;;;;;;;;;7.53;88.44;100177.88;4973552;28;19910;-68
2022/09/29 08:59:30;;;;;;;;;;;;;;;7.60;88.57;100178.91;4970747;28;20428;-69
2022/09/29 09:01:56;;;;;;;;;;;;;;;7.67;88.28;100183.41;4957053;28;19910;-68
2022/09/29 09:04:24;;;;;;;;;;;;;;;7.74;88.73;100182.72;4973912;28;20004;-69
2022/09/29 09:06:53;;;;;;;;;;;;;;;7.83;88.78;100185.53;4979474;28;19996;-69
2022/09/29 09:09:27;;;;;;;;;;;;;;;7.95;88.72;100189.25;4985994;28;19924;-69
2022/09/29 09:12:07;;;;;;;;;;;;;;;8.05;88.96;100186.00;4977516;28;20420;-69
2022/09/29 09:14:45;;;;;;;;;;;;;;;8.17;88.73;100190.63;4991090;28;20000;-70
2022/09/29 09:17:14;;;;;;;;;;;;;;;8.29;89.14;100185.69;4961952;28;19914;-69
2022/09/29 09:19:43;;;;;;;;;;;;;;;8.39;88.85;100191.97;4974901;28;20012;-69
2022/09/29 09:22:24;;;;;;;;;;;;;;;8.48;88.81;100192.19;4972854;28;19914;-68
2022/09/29 09:25:08;;;;;;;;;;;;;;;8.61;89.02;100197.66;4972663;28;19918;-69
2022/09/29 09:27:38;;;;;;;;;;;;;;;8.72;89.09;100184.91;4974132;28;20354;-69
2022/09/29 09:30:05;;;;;;;;;;;;;;;8.83;89.12;100192.06;4984886;28;20366;-69
2022/09/29 09:32:33;;;;;;;;;;;;;;;8.99;89.30;100192.38;4978128;28;19936;-69
2022/09/29 09:35:04;;;;;;;;;;;;;;;9.11;89.18;100196.91;4988076;28;20004;-69
2022/09/29 09:37:30;;;;;;;;;;;;;;;9.23;88.56;100198.03;4991904;28;19915;-69
2022/09/29 09:40:02;;;;;;;;;;;;;;;9.33;88.49;100196.47;4987644;28;19996;-69
2022/09/29 09:42:31;;;;;;;;;;;;;;;9.43;88.72;100200.13;4976120;28;20004;-69
2022/09/29 09:45:16;;;;;;;;;;;;;;;9.51;88.16;100195.91;4986852;28;19917;-69
2022/09/29 09:47:48;;;;;;;;;;;;;;;9.59;87.76;100190.88;4991082;28;19910;-69
2022/09/29 09:50:19;;;;;;;;;;;;;;;9.65;87.23;100193.56;4980176;28;20028;-69
2022/09/29 09:52:45;;;;;;;;;;;;;;;9.74;87.84;100203.25;4975516;28;19953;-69
2022/09/29 09:55:14;;;;;;;;;;;;;;;9.89;87.84;100202.59;4975194;28;20024;-69
2022/09/29 09:57:39;;;;;;;;;;;;;;;10.03;87.21;100200.22;4974089;28;19914;-70
2022/09/29 10:00:09;;;;;;;;;;;;;;;10.17;87.07;100195.25;4978407;28;19921;-69
2022/09/29 10:02:37;;;;;;;;;;;;;;;10.32;86.84;100199.78;4982910;28;19968;-69
2022/09/29 10:05:02;;;;;;;;;;;;;;;10.47;86.87;100197.44;4984204;28;19916;-69
2022/09/29 10:07:28;;;;;;;;;;;;;;;10.64;86.25;100195.03;4970154;28;20297;-64
2022/09/29 10:09:55;;;;;;;;;;;;;;;10.75;86.30;100198.66;4954706;28;19926;-64
2022/09/29 10:12:21;;;;;;;;;;;;;;;10.91;85.61;100201.47;4972459;28;19993;-64
2022/09/29 10:15:02;;;;;;;;;;;;;;;11.12;85.32;100200.81;4988526;28;19917;-64
2022/09/29 10:17:30;;;;;;;;;;;;;;;11.33;84.89;100200.19;4979973;28;19973;-63
2022/09/29 10:20:06;;;;;;;;;;;;;;;11.45;83.49;100196.81;4985798;28;19910;-63
2022/09/29 10:22:31;;;;;;;;;;;;;;;11.60;83.69;100201.28;4991454;28;19929;-63
2022/09/29 10:25:17;;;;;;;;;;;;;;;11.75;83.78;100206.66;4988320;28;19910;-63
2022/09/29 10:27:45;;;;;;;;;;;;;;;11.95;83.30;100208.59;4969950;28;20297;-63
2022/09/29 10:30:31;;;;;;;;;;;;;;;12.14;83.34;100212.22;4981677;28;20027;-64
2022/09/29 10:32:59;;;;;;;;;;;;;;;12.35;82.62;100209.75;4991467;28;20324;-64
2022/09/29 10:35:31;;;;;;;;;;;;;;;12.48;82.33;100208.06;4985611;28;19914;-64
2022/09/29 10:38:01;;;;;;;;;;;;;;;12.66;81.85;100216.88;4991654;28;20021;-64
2022/09/29 10:40:27;;;;;;;;;;;;;;;12.83;81.93;100209.06;4978108;28;19909;-64
2022/09/29 10:42:52;;;;;;;;;;;;;;;12.99;81.54;100212.63;4991152;28;19921;-64
2022/09/29 10:45:25;;;;;;;;;;;;;;;13.12;80.75;100213.53;4986293;28;19925;-64
2022/09/29 10:47:56;;;;;;;;;;;;;;;13.23;80.41;100217.94;4961489;28;20024;-64
2022/09/29 10:50:22;;;;;;;;;;;;;;;13.36;80.28;100213.63;4990700;28;20014;-64
2022/09/29 10:52:51;;;;;;;;;;;;;;;13.47;80.06;100210.16;4990954;28;19914;-64
2022/09/29 10:55:20;;;;;;;;;;;;;;;13.54;79.66;100211.91;4988293;28;19936;-64
2022/09/29 10:57:47;;;;;;;;;;;;;;;13.66;79.49;100211.94;4956552;28;20422;-64
2022/09/29 11:00:30;;;;;;;;;;;;;;;13.71;78.99;100223.25;4971707;28;19914;-64
2022/09/29 11:03:14;;;;;;;;;;;;;;;13.65;79.22;100219.78;4990687;28;20416;-64
2022/09/29 11:05:50;;;;;;;;;;;;;;;13.67;79.75;100216.31;4980607;28;19950;-64
2022/09/29 11:08:15;;;;;;;;;;;;;;;13.71;79.65;100223.25;4950761;28;19914;-69
2022/09/29 11:10:42;;;;;;;;;;;;;;;13.83;79.37;100221.53;4980339;28;19925;-69
2022/09/29 11:13:23;;;;;;;;;;;;;;;13.91;78.52;100223.28;4987767;28;19910;-69
2022/09/29 11:15:48;;;;;;;;;;;;;;;13.98;78.32;100225.91;4987313;28;19972;-69
2022/09/29 11:18:28;;;;;;;;;;;;;;;14.01;78.17;100224.16;4987011;28;19909;-70
2022/09/29 11:21:07;;;;;;;;;;;;;;;13.98;78.14;100225.91;4973248;28;19914;-69
2022/09/29 11:23:36;;;;;;;;;;;;;;;13.88;77.91;100225.91;4977606;28;19917;-69
2022/09/29 11:26:06;;;;;;;;;;;;;;;13.82;78.64;100233.75;4976470;28;19921;-69
2022/09/29 11:28:38;;;;;;;;;;;;;;;13.78;78.96;100231.16;4978346;28;20464;-69
2022/09/29 11:31:08;;;;;;;;;;;;;;;13.86;78.94;100219.81;4985579;28;19909;-69
2022/09/29 11:33:36;;;;;;;;;;;;;;;13.82;78.12;100231.16;4989557;28;19913;-69
2022/09/29 11:36:06;;;;;;;;;;;;;;;13.74;78.71;100225.03;4973793;28;19933;-69
2022/09/29 11:38:50;;;;;;;;;;;;;;;13.66;78.59;100226.78;4970177;28;19953;-64
2022/09/29 11:41:24;;;;;;;;;;;;;;;13.58;78.76;100226.75;4969309;28;20436;-64
2022/09/29 11:43:52;;;;;;;;;;;;;;;13.62;78.90;100225.88;4968458;28;19914;-64
2022/09/29 11:46:25;;;;;;;;;;;;;;;13.70;78.23;100229.41;4968523;28;19985;-64
2022/09/29 11:49:00;;;;;;;;;;;;;;;13.82;77.59;100236.38;4952425;28;20097;-64
2022/09/29 11:51:32;;;;;;;;;;;;;;;13.90;77.71;100236.38;4982684;28;19910;-64
2022/09/29 11:54:18;;;;;;;;;;;;;;;13.85;77.51;100230.28;4973412;28;20294;-64
2022/09/29 11:56:50;;;;;;;;;;;;;;;13.80;77.95;100234.63;4978152;28;19956;-64
2022/09/29 11:59:34;;;;;;;;;;;;;;;13.87;78.11;100237.25;4984881;28;19909;-64
2022/09/29 12:02:25;;;;;;;;;;;;;;;13.88;77.94;100243.38;4993825;28;19917;-64
2022/09/29 12:05:05;;;;;;;;;;;;;;;13.81;77.82;100241.63;4979185;28;20658;-64
2022/09/29 12:07:33;;;;;;;;;;;;;;;13.84;78.39;100237.25;4975517;28;19972;-64
2022/09/29 12:10:13;;;;;;;;;;;;;;;14.01;78.07;100234.63;4993413;28;19918;-64
2022/09/29 12:12:44;;;;;;;;;;;;;;;14.14;77.39;100242.50;4993617;28;20283;-64
2022/09/29 12:15:15;;;;;;;;;;;;;;;14.17;77.64;100243.34;4979887;28;19921;-65
2022/09/29 12:17:43;;;;;;;;;;;;;;;14.22;77.39;100244.25;4980627;28;19914;-64
2022/09/29 12:20:23;;;;;;;;;;;;;;;14.29;77.51;100241.59;4992217;28;19969;-64
2022/09/29 12:22:50;;;;;;;;;;;;;;;14.36;77.62;100236.34;4993136;28;20004;-65
2022/09/29 12:25:17;;;;;;;;;;;;;;;14.43;77.49;100231.97;4975724;28;20333;-64
2022/09/29 12:27:43;;;;;;;;;;;;;;;14.60;76.76;100245.91;4976194;28;19909;-64
2022/09/29 12:30:19;;;;;;;;;;;;;;;14.73;76.93;100244.16;4987228;28;20062;-64
2022/09/29 12:32:50;;;;;;;;;;;;;;;14.77;76.23;100240.66;4984042;28;19914;-64
2022/09/29 12:35:18;;;;;;;;;;;;;;;14.73;76.14;100244.16;4992507;28;20301;-64
2022/09/29 12:37:48;;;;;;;;;;;;;;;14.66;76.40;100239.81;4984787;28;20398;-64
2022/09/29 12:40:31;;;;;;;;;;;;;;;14.60;76.66;100240.66;4980561;28;20405;-64
2022/09/29 12:42:59;;;;;;;;;;;;;;;14.52;76.51;100236.31;4981151;28;20290;-64
2022/09/29 12:45:29;;;;;;;;;;;;;;;14.43;76.92;100238.06;4984528;28;19916;-65
2022/09/29 12:48:14;;;;;;;;;;;;;;;14.47;77.02;100240.69;4982771;28;19910;-64
2022/09/29 12:50:48;;;;;;;;;;;;;;;14.55;76.63;100247.66;4982061;28;19925;-64
2022/09/29 12:53:16;;;;;;;;;;;;;;;14.57;76.46;100245.03;4984167;28;20289;-65
2022/09/29 12:55:44;;;;;;;;;;;;;;;14.55;76.43;100237.16;4983867;28;19918;-64
2022/09/29 12:58:14;;;;;;;;;;;;;;;14.51;76.69;100235.44;4986062;28;19909;-64